createdAt,value
2023-03-22T00:02:46.723Z,8.89
2023-03-22T00:12:53.198Z,8.55
2023-03-22T00:22:55.290Z,9.08
2023-03-22T00:32:57.356Z,8.63
2023-03-22T00:42:59.560Z,9.15
2023-03-22T00:53:04.252Z,8.77
2023-03-22T01:03:06.948Z,8.90
2023-03-22T01:13:11.046Z,9.30
2023-03-22T01:23:13.177Z,9.02
2023-03-22T01:33:15.978Z,8.40
2023-03-22T01:43:18.383Z,8.34
2023-03-22T01:53:23.579Z,8.58
2023-03-22T02:03:51.264Z,8.94
2023-03-22T02:14:18.527Z,8.89
2023-03-22T02:24:55.566Z,8.72
2023-03-22T02:34:58.041Z,8.45
2023-03-22T02:45:36.965Z,8.23
2023-03-22T02:56:03.011Z,8.08
2023-03-22T03:06:12.829Z,8.05
2023-03-22T03:16:19.094Z,7.98
2023-03-22T03:26:30.761Z,7.95
2023-03-22T03:36:37.774Z,7.74
2023-03-22T03:46:40.848Z,7.90
2023-03-22T03:56:42.926Z,7.70
2023-03-22T04:06:45.292Z,7.77
2023-03-22T04:16:53.148Z,7.49
2023-03-22T04:26:59.180Z,7.57
2023-03-22T04:37:06.251Z,7.13
2023-03-22T04:47:12.853Z,7.37
2023-03-22T04:57:15.717Z,7.35
2023-03-22T05:07:22.544Z,7.06
2023-03-22T05:17:29.882Z,7.45
2023-03-22T05:27:34.981Z,7.34
2023-03-22T05:37:53.041Z,7.41
2023-03-22T05:47:56.627Z,7.35
2023-03-22T05:58:01.909Z,7.60
2023-03-22T06:08:06.194Z,7.78
2023-03-22T06:18:08.537Z,7.87
2023-03-22T06:28:15.370Z,7.79
2023-03-22T06:38:24.871Z,8.00
2023-03-22T06:48:28.215Z,8.16
2023-03-22T06:58:47.956Z,8.02
2023-03-22T07:08:52.209Z,8.81
2023-03-22T07:18:59.700Z,8.43
2023-03-22T07:29:02.299Z,8.06
2023-03-22T07:39:07.720Z,8.52
2023-03-22T07:49:15.041Z,9.33
2023-03-22T07:59:46.404Z,10.18
2023-03-22T08:09:50.387Z,9.49
2023-03-22T08:19:54.370Z,9.67
2023-03-22T08:30:02.643Z,9.96
2023-03-22T08:40:09.788Z,9.24
2023-03-22T08:50:23.318Z,10.10
2023-03-22T09:00:47.440Z,9.95
2023-03-22T09:11:12.602Z,10.19
2023-03-22T09:21:14.885Z,9.97
2023-03-22T09:31:40.671Z,10.15
2023-03-22T09:41:57.922Z,10.37
2023-03-22T09:52:00.313Z,11.66
2023-03-22T10:02:21.707Z,12.07
2023-03-22T10:12:29.497Z,10.51
2023-03-22T10:22:35.605Z,11.32
2023-03-22T10:32:57.612Z,10.69
2023-03-22T10:43:06.659Z,10.93
2023-03-22T10:53:11.754Z,10.55
2023-03-22T11:03:27.635Z,11.58
2023-03-22T11:13:34.135Z,10.71
2023-03-22T11:23:38.772Z,11.30
2023-03-22T11:34:00.377Z,11.50
2023-03-22T11:44:05.796Z,11.46
2023-03-22T11:54:17.417Z,11.24
2023-03-22T12:04:24.984Z,10.50
2023-03-22T12:14:34.266Z,10.43
2023-03-22T12:24:36.348Z,10.96
2023-03-22T12:34:45.429Z,10.92
2023-03-22T12:44:58.920Z,11.69
2023-03-22T12:55:18.484Z,10.80
2023-03-22T13:05:20.921Z,10.38
2023-03-22T13:15:41.171Z,11.10
2023-03-22T13:25:59.437Z,10.46
2023-03-22T13:36:26.190Z,10.06
2023-03-22T13:46:52.089Z,10.47
2023-03-22T13:57:01.153Z,10.40
2023-03-22T14:07:33.729Z,11.15
2023-03-22T14:17:44.171Z,11.44
